createdAt,value
2017-12-02T00:00:35.724Z,18.27
2017-12-02T00:03:01.976Z,18.90
2017-12-02T00:05:28.216Z,17.87
2017-12-02T00:07:54.454Z,20.10
2017-12-02T00:10:20.702Z,18.60
2017-12-02T00:12:46.975Z,18.55
2017-12-02T00:15:13.168Z,18.10
2017-12-02T00:17:39.773Z,20.80
2017-12-02T00:20:06.036Z,18.70
2017-12-02T00:22:32.649Z,17.98
2017-12-02T00:24:58.882Z,20.37
2017-12-02T00:27:25.149Z,20.08
2017-12-02T00:29:51.398Z,19.77
2017-12-02T00:32:17.662Z,19.30
2017-12-02T00:34:43.942Z,23.67
2017-12-02T00:37:10.229Z,20.37
2017-12-02T00:39:36.477Z,22.75
2017-12-02T00:42:02.764Z,19.85
2017-12-02T00:44:28.987Z,20.52
2017-12-02T00:46:55.218Z,20.27
2017-12-02T00:49:21.453Z,20.80
2017-12-02T00:51:47.676Z,19.15
2017-12-02T00:54:13.897Z,20.55
2017-12-02T00:56:40.105Z,21.98
2017-12-02T00:59:06.327Z,20.42
2017-12-02T01:01:32.540Z,22.23
2017-12-02T01:03:58.773Z,21.92
2017-12-02T01:06:25.023Z,24.83
2017-12-02T01:08:51.221Z,23.27
2017-12-02T01:11:17.477Z,28.55
2017-12-02T01:13:43.736Z,25.85
2017-12-02T01:16:10.020Z,25.37
2017-12-02T01:18:36.232Z,24.23
2017-12-02T01:21:02.848Z,24.33
2017-12-02T01:23:29.056Z,24.15
2017-12-02T01:25:55.295Z,26.40
2017-12-02T01:28:21.501Z,26.33
2017-12-02T01:30:47.730Z,24.37
2017-12-02T01:33:13.965Z,25.65
2017-12-02T01:35:40.206Z,24.42
2017-12-02T01:38:06.424Z,26.77
2017-12-02T01:40:32.720Z,27.17
2017-12-02T01:42:58.933Z,27.73
2017-12-02T01:45:25.134Z,24.40
2017-12-02T01:47:51.349Z,28.33
2017-12-02T01:50:17.580Z,30.60
2017-12-02T01:52:43.822Z,25.75
2017-12-02T01:55:10.390Z,26.00
2017-12-02T01:57:36.622Z,29.00
2017-12-02T02:00:02.882Z,28.25
2017-12-02T02:02:29.130Z,28.60
2017-12-02T02:04:55.300Z,30.08
2017-12-02T02:07:21.541Z,27.77
2017-12-02T02:09:47.773Z,30.48
2017-12-02T02:12:13.967Z,27.45
2017-12-02T02:14:40.581Z,30.67
2017-12-02T02:17:06.781Z,32.92
2017-12-02T02:19:33.008Z,31.17
2017-12-02T02:21:59.246Z,36.22
2017-12-02T02:24:25.488Z,29.27
2017-12-02T02:26:51.721Z,29.40
2017-12-02T02:29:17.907Z,33.80
2017-12-02T02:31:44.150Z,30.65
2017-12-02T02:34:10.345Z,31.35
2017-12-02T02:36:36.545Z,30.27
2017-12-02T02:39:03.201Z,30.05
2017-12-02T02:41:29.422Z,31.23
2017-12-02T02:43:55.646Z,33.88
2017-12-02T02:46:22.233Z,30.40
2017-12-02T02:48:48.443Z,30.40
2017-12-02T02:51:14.666Z,27.30
2017-12-02T02:53:40.919Z,34.28
2017-12-02T02:56:07.117Z,29.58
2017-12-02T02:58:33.340Z,29.05
2017-12-02T03:00:59.571Z,30.95
2017-12-02T03:03:25.773Z,30.98
2017-12-02T03:05:52.009Z,34.17
2017-12-02T03:08:18.245Z,31.20
2017-12-02T03:10:44.520Z,29.00
2017-12-02T03:13:10.746Z,33.65
2017-12-02T03:15:37.000Z,32.70
2017-12-02T03:18:03.268Z,32.42
2017-12-02T03:20:29.520Z,33.03
2017-12-02T03:22:55.737Z,27.80
2017-12-02T03:25:21.968Z,30.08
2017-12-02T03:27:48.188Z,30.50
2017-12-02T03:30:14.482Z,32.28
2017-12-02T03:32:40.738Z,32.40
2017-12-02T03:35:06.987Z,30.83
2017-12-02T03:37:33.250Z,29.87
2017-12-02T03:39:59.494Z,33.33
2017-12-02T03:42:26.774Z,33.33
2017-12-02T03:44:52.993Z,29.87
2017-12-02T03:47:19.233Z,31.62
2017-12-02T03:49:45.483Z,29.70
2017-12-02T03:52:11.736Z,31.08
2017-12-02T03:54:37.932Z,30.85
2017-12-02T03:57:04.182Z,33.05
2017-12-02T03:59:30.433Z,30.37
2017-12-02T04:01:57.039Z,29.35
2017-12-02T04:04:23.305Z,32.78
2017-12-02T04:06:49.941Z,30.67
2017-12-02T04:09:16.193Z,28.38
2017-12-02T04:11:42.445Z,32.08
2017-12-02T04:14:08.695Z,30.60
2017-12-02T04:16:34.959Z,28.65
2017-12-02T04:19:01.629Z,30.73
2017-12-02T04:21:27.924Z,29.52
2017-12-02T04:23:54.186Z,29.58
2017-12-02T04:26:20.454Z,30.85
2017-12-02T04:28:46.707Z,32.65
2017-12-02T04:31:13.350Z,28.87
2017-12-02T04:33:39.950Z,31.98
2017-12-02T04:36:06.197Z,29.77
2017-12-02T04:38:32.455Z,33.78
2017-12-02T04:40:59.098Z,30.17
2017-12-02T04:43:25.349Z,32.13
2017-12-02T04:45:51.573Z,30.45
2017-12-02T04:48:17.804Z,29.45
2017-12-02T04:50:44.028Z,33.53
2017-12-02T04:53:10.291Z,31.90
2017-12-02T04:55:36.548Z,29.70
2017-12-02T04:58:02.775Z,36.03
2017-12-02T05:00:29.027Z,33.13
2017-12-02T05:02:55.236Z,31.77
2017-12-02T05:05:21.503Z,30.35
2017-12-02T05:07:47.801Z,32.03
2017-12-02T05:10:14.385Z,32.85
2017-12-02T05:12:40.633Z,31.85
2017-12-02T05:15:06.881Z,32.63
2017-12-02T05:17:33.523Z,33.22
2017-12-02T05:20:00.124Z,32.15
2017-12-02T05:22:26.352Z,31.90
2017-12-02T05:24:52.613Z,31.45
2017-12-02T05:27:19.248Z,30.40
2017-12-02T05:29:45.481Z,31.37
2017-12-02T05:32:12.095Z,33.25
2017-12-02T05:34:38.316Z,31.00
2017-12-02T05:37:04.546Z,33.33
2017-12-02T05:39:30.843Z,30.88
2017-12-02T05:41:57.061Z,33.88
2017-12-02T05:44:23.306Z,33.50
2017-12-02T05:46:49.540Z,30.48
2017-12-02T05:49:15.794Z,32.78
2017-12-02T05:51:42.008Z,31.12
2017-12-02T05:54:08.275Z,34.00
2017-12-02T05:56:34.506Z,32.83
2017-12-02T05:59:00.765Z,32.38
2017-12-02T06:01:26.990Z,31.20
2017-12-02T06:03:53.276Z,34.00
2017-12-02T06:06:19.563Z,31.83
2017-12-02T06:08:45.855Z,34.30
2017-12-02T06:11:12.839Z,34.70
2017-12-02T06:13:39.105Z,32.65
2017-12-02T06:16:05.369Z,31.30
2017-12-02T06:18:31.655Z,33.30
2017-12-02T06:20:57.957Z,33.70
2017-12-02T06:23:24.195Z,32.45
2017-12-02T06:25:50.415Z,36.58
2017-12-02T06:28:16.639Z,31.15
2017-12-02T06:30:42.890Z,34.13
2017-12-02T06:33:09.445Z,39.53
2017-12-02T06:35:35.718Z,37.47
2017-12-02T06:38:01.961Z,35.53
2017-12-02T06:40:28.241Z,36.13
2017-12-02T06:42:54.853Z,37.70
2017-12-02T06:45:21.145Z,37.65
2017-12-02T06:47:47.441Z,31.30
2017-12-02T06:50:14.379Z,30.42
2017-12-02T06:52:40.625Z,28.48
2017-12-02T06:55:07.240Z,32.92
2017-12-02T06:57:33.496Z,28.42
2017-12-02T07:00:00.181Z,29.50
2017-12-02T07:02:26.443Z,27.40
2017-12-02T07:04:53.090Z,29.67
2017-12-02T07:07:19.821Z,25.55
2017-12-02T07:09:46.114Z,28.00
2017-12-02T07:12:12.373Z,29.98
2017-12-02T07:14:38.741Z,29.27
2017-12-02T07:17:05.008Z,30.02
2017-12-02T07:19:31.275Z,34.75
2017-12-02T07:21:57.942Z,30.95
2017-12-02T07:24:24.206Z,29.63
2017-12-02T07:26:50.498Z,29.42
2017-12-02T07:29:16.762Z,28.27
2017-12-02T07:31:43.010Z,33.80
2017-12-02T07:34:09.264Z,32.00
2017-12-02T07:36:35.911Z,30.02
2017-12-02T07:39:02.183Z,32.90
2017-12-02T07:41:28.423Z,30.95
2017-12-02T07:43:54.701Z,30.75
2017-12-02T07:46:20.971Z,28.50
2017-12-02T07:48:47.221Z,31.25
2017-12-02T07:51:13.571Z,31.35
2017-12-02T07:53:39.815Z,30.95
2017-12-02T07:56:06.106Z,32.13
2017-12-02T07:58:32.986Z,28.62
2017-12-02T08:00:59.212Z,29.12
2017-12-02T08:03:25.492Z,29.20
2017-12-02T08:05:51.740Z,26.30
2017-12-02T08:08:18.067Z,30.67
2017-12-02T08:10:44.369Z,23.75
2017-12-02T08:13:13.429Z,31.15
2017-12-02T08:15:39.702Z,28.58
2017-12-02T08:18:05.930Z,25.27
2017-12-02T08:20:32.192Z,32.30
2017-12-02T08:22:58.479Z,26.00
2017-12-02T08:25:24.733Z,25.05
2017-12-02T08:27:50.963Z,25.95
2017-12-02T08:30:17.224Z,27.17
2017-12-02T08:32:43.874Z,27.30
2017-12-02T08:35:10.091Z,26.87
2017-12-02T08:37:36.354Z,30.62
2017-12-02T08:40:02.616Z,26.40
2017-12-02T08:42:28.851Z,30.33
2017-12-02T08:44:55.090Z,28.17
2017-12-02T08:47:21.758Z,33.45
2017-12-02T08:49:48.027Z,29.15
2017-12-02T08:52:14.249Z,31.90
2017-12-02T08:54:40.505Z,26.95
2017-12-02T08:57:07.118Z,23.60
2017-12-02T08:59:33.406Z,23.50
2017-12-02T09:01:59.673Z,23.75
2017-12-02T09:04:26.503Z,20.33
2017-12-02T09:06:52.756Z,20.45
2017-12-02T09:09:19.297Z,20.42
2017-12-02T09:11:45.555Z,20.23
2017-12-02T09:14:11.840Z,25.08
2017-12-02T09:16:38.103Z,21.50
2017-12-02T09:19:04.381Z,22.80
2017-12-02T09:21:30.656Z,21.95
2017-12-02T09:23:57.312Z,19.17
2017-12-02T09:26:23.589Z,22.50
2017-12-02T09:28:49.837Z,22.85
2017-12-02T09:31:16.162Z,24.75
2017-12-02T09:33:42.408Z,21.45
2017-12-02T09:36:08.705Z,21.08
2017-12-02T09:38:34.959Z,25.75
2017-12-02T09:41:01.637Z,22.42
2017-12-02T09:43:27.949Z,18.92
2017-12-02T09:45:54.230Z,18.77
2017-12-02T09:48:20.854Z,21.12
2017-12-02T09:50:47.117Z,16.83
2017-12-02T09:55:45.225Z,24.10
2017-12-02T09:58:11.525Z,25.83
2017-12-02T10:00:37.765Z,23.17
2017-12-02T10:03:04.403Z,23.23
2017-12-02T10:05:30.689Z,23.40
2017-12-02T10:07:56.973Z,24.63
2017-12-02T10:10:23.233Z,25.33
2017-12-02T10:12:49.520Z,25.25
2017-12-02T10:15:16.189Z,22.15
2017-12-02T10:17:42.440Z,21.23
2017-12-02T10:20:08.736Z,20.37
2017-12-02T10:22:35.059Z,19.60
2017-12-02T10:25:01.717Z,24.30
2017-12-02T10:27:27.971Z,23.77
2017-12-02T10:29:54.241Z,23.42
2017-12-02T10:32:20.496Z,21.85
2017-12-02T10:34:46.813Z,23.77
2017-12-02T10:37:13.186Z,22.17
2017-12-02T10:39:39.555Z,19.05
2017-12-02T10:42:05.853Z,20.42
2017-12-02T10:44:32.131Z,21.30
2017-12-02T10:46:58.820Z,19.00
2017-12-02T10:49:25.146Z,21.40
2017-12-02T10:51:51.430Z,22.70
2017-12-02T10:54:18.068Z,23.10
2017-12-02T10:56:44.696Z,18.87
2017-12-02T10:59:10.952Z,21.25
2017-12-02T11:01:37.197Z,22.23
2017-12-02T11:04:03.536Z,19.52
2017-12-02T11:06:29.855Z,19.15
2017-12-02T11:08:56.133Z,21.25
2017-12-02T11:11:22.382Z,17.73
2017-12-02T11:13:48.677Z,17.90
2017-12-02T11:16:14.969Z,21.85
2017-12-02T11:18:41.184Z,17.40
2017-12-02T11:21:07.448Z,22.90
2017-12-02T11:23:33.701Z,23.92
2017-12-02T11:25:59.982Z,20.85
2017-12-02T11:28:26.226Z,18.90
2017-12-02T11:30:52.486Z,18.02
2017-12-02T11:33:18.719Z,18.52
2017-12-02T11:35:45.001Z,20.10
2017-12-02T11:38:11.269Z,20.05
2017-12-02T11:40:37.523Z,19.42
2017-12-02T11:43:03.756Z,16.50
2017-12-02T11:45:30.016Z,15.13
2017-12-02T11:47:56.246Z,18.30
2017-12-02T11:50:22.494Z,16.87
2017-12-02T11:52:48.776Z,19.67
2017-12-02T11:55:15.032Z,18.48
2017-12-02T11:57:41.287Z,18.23
2017-12-02T12:00:07.508Z,19.37
2017-12-02T12:02:34.061Z,17.25
2017-12-02T12:05:00.303Z,18.90
2017-12-02T12:07:26.519Z,17.10
2017-12-02T12:09:52.817Z,18.37
2017-12-02T12:12:19.106Z,17.48
2017-12-02T12:14:45.354Z,17.65
2017-12-02T12:17:11.596Z,17.90
2017-12-02T12:19:37.919Z,22.85
2017-12-02T12:22:04.191Z,20.40
2017-12-02T12:24:30.448Z,17.60
2017-12-02T12:26:57.042Z,21.08
2017-12-02T12:29:23.282Z,18.73
2017-12-02T12:31:49.533Z,17.87
2017-12-02T12:34:16.142Z,23.33
2017-12-02T12:36:42.438Z,25.02
2017-12-02T12:39:09.021Z,23.62
2017-12-02T12:41:35.284Z,24.30
2017-12-02T12:44:01.516Z,21.45
2017-12-02T12:46:27.794Z,24.60
2017-12-02T12:48:54.021Z,24.92
2017-12-02T12:51:20.287Z,26.98
2017-12-02T12:53:46.886Z,27.73
2017-12-02T12:56:13.153Z,25.75
2017-12-02T12:58:39.795Z,28.75
2017-12-02T13:01:06.405Z,23.83
2017-12-02T13:03:32.695Z,28.17
2017-12-02T13:05:58.935Z,23.35
2017-12-02T13:08:25.196Z,21.62
2017-12-02T13:10:51.461Z,25.23
2017-12-02T13:13:17.713Z,32.22
2017-12-02T13:15:43.932Z,40.85
2017-12-02T13:18:10.268Z,29.08
2017-12-02T13:20:36.522Z,25.55
2017-12-02T13:23:02.793Z,23.48
2017-12-02T13:25:29.082Z,22.75
2017-12-02T13:27:55.308Z,24.35
2017-12-02T13:30:21.525Z,22.30
2017-12-02T13:32:47.804Z,25.67
2017-12-02T13:35:14.401Z,21.33
2017-12-02T13:37:40.677Z,20.33
2017-12-02T13:40:06.924Z,20.00
2017-12-02T13:42:33.128Z,23.42
2017-12-02T13:44:59.450Z,19.90
2017-12-02T13:47:25.679Z,24.37
2017-12-02T13:49:51.924Z,26.60
2017-12-02T13:52:18.169Z,26.58
2017-12-02T13:54:44.445Z,26.27
2017-12-02T13:57:11.113Z,26.15
2017-12-02T13:59:37.368Z,24.17
2017-12-02T14:02:03.726Z,25.77
2017-12-02T14:04:29.942Z,25.12
2017-12-02T14:06:56.165Z,22.85
2017-12-02T14:09:22.462Z,28.90
2017-12-02T14:11:48.714Z,22.48
2017-12-02T14:14:14.985Z,23.75
2017-12-02T14:16:41.208Z,23.10
2017-12-02T14:19:07.490Z,25.10
2017-12-02T14:21:33.733Z,27.10
2017-12-02T14:23:59.991Z,25.73
2017-12-02T14:26:26.233Z,23.02
2017-12-02T14:28:52.474Z,22.80
2017-12-02T14:31:19.133Z,24.35
2017-12-02T14:33:46.205Z,25.60
2017-12-02T14:36:13.039Z,21.90
2017-12-02T14:38:39.279Z,24.05
2017-12-02T14:41:05.561Z,25.58
2017-12-02T14:46:03.616Z,24.33
2017-12-02T14:48:30.859Z,24.65
2017-12-02T14:50:57.114Z,23.25
2017-12-02T14:53:23.401Z,26.10
2017-12-02T14:55:49.616Z,20.33
2017-12-02T14:58:15.854Z,25.90
2017-12-02T15:00:42.117Z,28.02
2017-12-02T15:03:08.407Z,26.58
2017-12-02T15:05:34.700Z,24.33
2017-12-02T15:08:01.307Z,26.08
2017-12-02T15:10:27.561Z,26.42
2017-12-02T15:12:54.205Z,24.42
2017-12-02T15:15:20.845Z,23.00
2017-12-02T15:17:47.594Z,24.40
2017-12-02T15:20:14.182Z,23.10
2017-12-02T15:22:40.564Z,26.73
2017-12-02T15:25:08.754Z,26.77
2017-12-02T15:27:34.992Z,27.10
2017-12-02T15:30:01.315Z,26.30
2017-12-02T15:32:27.531Z,23.48
2017-12-02T15:34:54.799Z,28.77
2017-12-02T15:37:21.166Z,27.58
2017-12-02T15:39:47.475Z,26.25
2017-12-02T15:42:13.756Z,28.90
2017-12-02T15:44:40.105Z,26.83
2017-12-02T15:47:06.366Z,26.90
2017-12-02T15:49:32.649Z,27.30
2017-12-02T15:51:58.973Z,26.62
2017-12-02T15:54:25.650Z,34.50
2017-12-02T15:56:51.977Z,32.40
2017-12-02T15:59:18.280Z,30.62
2017-12-02T16:01:44.561Z,27.20
2017-12-02T16:04:10.847Z,28.48
2017-12-02T16:06:37.151Z,24.85
2017-12-02T16:09:03.848Z,26.15
2017-12-02T16:11:30.121Z,28.70
2017-12-02T16:13:56.398Z,26.27
2017-12-02T16:16:22.733Z,30.23
2017-12-02T16:18:49.027Z,34.50
2017-12-02T16:21:15.293Z,41.30
2017-12-02T16:23:41.574Z,34.88
2017-12-02T16:26:08.278Z,28.05
2017-12-02T16:28:34.599Z,34.38
2017-12-02T16:31:00.871Z,30.80
2017-12-02T16:33:27.580Z,40.33
2017-12-02T16:35:53.871Z,28.30
2017-12-02T16:38:20.206Z,33.78
2017-12-02T16:40:46.555Z,45.38
2017-12-02T16:43:12.866Z,42.85
2017-12-02T16:45:39.171Z,41.65
2017-12-02T16:48:05.478Z,34.67
2017-12-02T16:50:32.119Z,35.53
2017-12-02T16:52:58.795Z,31.73
2017-12-02T16:55:25.131Z,36.85
2017-12-02T16:57:51.426Z,27.23
2017-12-02T17:00:18.109Z,32.78
2017-12-02T17:02:44.419Z,28.58
2017-12-02T17:05:10.711Z,31.08
2017-12-02T17:07:37.356Z,33.00
2017-12-02T17:10:04.042Z,33.90
2017-12-02T17:12:30.324Z,30.10
2017-12-02T17:14:56.612Z,30.33
2017-12-02T17:17:22.899Z,28.42
2017-12-02T17:19:49.177Z,31.58
2017-12-02T17:22:15.438Z,30.10
2017-12-02T17:24:41.709Z,24.25
2017-12-02T17:27:07.972Z,42.62
2017-12-02T17:29:34.260Z,27.08
2017-12-02T17:32:00.542Z,31.62
2017-12-02T17:34:27.838Z,29.80
2017-12-02T17:36:54.083Z,37.80
2017-12-02T17:39:20.348Z,30.98
2017-12-02T17:41:46.678Z,39.95
2017-12-02T17:44:12.971Z,31.45
2017-12-02T17:46:39.261Z,30.80
2017-12-02T17:49:05.949Z,49.90
2017-12-02T17:51:32.197Z,38.83
2017-12-02T17:53:58.498Z,30.92
2017-12-02T17:56:24.720Z,82.70
2017-12-02T17:58:50.977Z,34.15
2017-12-02T18:01:17.257Z,34.78
2017-12-02T18:03:43.521Z,44.10
2017-12-02T18:06:09.849Z,48.20
2017-12-02T18:08:36.090Z,44.20
2017-12-02T18:11:02.413Z,38.58
2017-12-02T18:13:28.657Z,49.47
2017-12-02T18:15:54.895Z,57.72
2017-12-02T18:18:21.185Z,27.33
2017-12-02T18:20:47.377Z,35.72
2017-12-02T18:23:13.997Z,34.65
2017-12-02T18:25:40.637Z,37.50
2017-12-02T18:28:06.857Z,35.42
2017-12-02T18:30:33.136Z,32.00
2017-12-02T18:32:59.376Z,29.17
2017-12-02T18:35:25.643Z,30.02
2017-12-02T18:37:51.892Z,30.60
2017-12-02T18:40:18.537Z,26.58
2017-12-02T18:42:44.832Z,29.37
2017-12-02T18:45:11.056Z,29.90
2017-12-02T18:47:37.291Z,31.25
2017-12-02T18:50:03.540Z,28.77
2017-12-02T18:52:29.764Z,31.45
2017-12-02T18:54:55.999Z,31.98
2017-12-02T18:57:22.240Z,29.35
2017-12-02T18:59:48.526Z,33.97
2017-12-02T19:02:14.748Z,26.25
2017-12-02T19:04:41.005Z,26.77
2017-12-02T19:07:07.673Z,29.08
2017-12-02T19:09:33.931Z,31.20
2017-12-02T19:12:00.210Z,31.48
2017-12-02T19:14:26.476Z,28.48
2017-12-02T19:16:52.723Z,29.55
2017-12-02T19:19:18.979Z,30.98
2017-12-02T19:21:45.258Z,29.90
2017-12-02T19:24:11.536Z,28.27
2017-12-02T19:26:37.832Z,31.67
2017-12-02T19:29:04.077Z,31.48
2017-12-02T19:31:30.324Z,31.35
2017-12-02T19:33:56.961Z,29.20
2017-12-02T19:36:23.256Z,28.75
2017-12-02T19:38:49.454Z,30.67
2017-12-02T19:41:15.714Z,29.67
2017-12-02T19:43:42.003Z,33.00
2017-12-02T19:46:08.275Z,29.35
2017-12-02T19:48:34.519Z,34.78
2017-12-02T19:51:00.827Z,30.45
2017-12-02T19:53:27.139Z,39.08
2017-12-02T19:55:53.431Z,39.30
2017-12-02T19:58:20.106Z,30.17
2017-12-02T20:00:46.427Z,30.23
2017-12-02T20:03:12.725Z,25.45
2017-12-02T20:05:39.386Z,26.65
2017-12-02T20:08:05.620Z,24.87
2017-12-02T20:10:32.363Z,25.23
2017-12-02T20:12:58.689Z,27.37
2017-12-02T20:15:24.947Z,33.70
2017-12-02T20:17:51.251Z,30.88
2017-12-02T20:20:17.541Z,36.30
2017-12-02T20:22:43.785Z,28.20
2017-12-02T20:25:10.509Z,31.35
2017-12-02T20:27:36.733Z,30.48
2017-12-02T20:30:03.077Z,33.88
2017-12-02T20:32:29.720Z,25.23
2017-12-02T20:34:56.405Z,25.90
2017-12-02T20:37:22.643Z,29.30
2017-12-02T20:39:48.911Z,27.52
2017-12-02T20:42:15.537Z,30.90
2017-12-02T20:44:42.429Z,29.58
2017-12-02T20:47:08.736Z,25.80
2017-12-02T20:49:35.001Z,25.17
2017-12-02T20:52:01.284Z,24.25
2017-12-02T20:54:27.998Z,25.65
2017-12-02T20:56:54.225Z,22.02
2017-12-02T20:59:20.486Z,19.87
2017-12-02T21:01:47.075Z,25.60
2017-12-02T21:04:13.370Z,29.98
2017-12-02T21:06:39.617Z,27.95
2017-12-02T21:09:05.930Z,25.33
2017-12-02T21:11:32.197Z,30.55
2017-12-02T21:13:58.403Z,32.42
2017-12-02T21:16:24.642Z,24.95
2017-12-02T21:18:50.898Z,29.10
2017-12-02T21:21:17.182Z,27.70
2017-12-02T21:23:43.508Z,24.90
2017-12-02T21:26:09.756Z,21.85
2017-12-02T21:28:36.035Z,22.20
2017-12-02T21:31:03.052Z,17.95
2017-12-02T21:33:29.290Z,17.73
2017-12-02T21:35:55.549Z,20.23
2017-12-02T21:38:21.823Z,15.80
2017-12-02T21:40:48.141Z,19.67
2017-12-02T21:43:14.444Z,16.10
2017-12-02T21:45:41.084Z,19.23
2017-12-02T21:48:07.385Z,19.30
2017-12-02T21:50:33.616Z,17.42
2017-12-02T21:52:59.958Z,21.12
2017-12-02T21:55:26.579Z,21.17
2017-12-02T21:57:52.908Z,19.83
2017-12-02T22:00:19.217Z,19.05
2017-12-02T22:02:45.470Z,18.92
2017-12-02T22:05:12.121Z,18.20
2017-12-02T22:07:38.830Z,21.50
2017-12-02T22:10:05.221Z,16.92
2017-12-02T22:12:31.555Z,17.90
2017-12-02T22:14:57.883Z,18.85
2017-12-02T22:17:24.279Z,19.37
2017-12-02T22:19:50.536Z,20.00
2017-12-02T22:22:16.873Z,19.40
2017-12-02T22:24:44.086Z,16.65
2017-12-02T22:27:10.394Z,19.90
2017-12-02T22:29:36.652Z,20.42
2017-12-02T22:32:03.312Z,20.05
2017-12-02T22:34:29.615Z,21.17
2017-12-02T22:36:55.934Z,21.00
2017-12-02T22:39:22.672Z,22.00
2017-12-02T22:41:49.000Z,18.45
2017-12-02T22:44:15.653Z,17.67
2017-12-02T22:46:42.326Z,18.02
2017-12-02T22:49:08.624Z,15.63
2017-12-02T22:51:34.921Z,17.55
2017-12-02T22:54:01.207Z,20.55
2017-12-02T22:56:27.510Z,18.50
2017-12-02T22:58:53.772Z,18.15
2017-12-02T23:01:20.123Z,21.33
2017-12-02T23:03:46.442Z,18.12
2017-12-02T23:06:12.773Z,21.25
2017-12-02T23:08:39.029Z,18.90
2017-12-02T23:11:05.339Z,17.77
2017-12-02T23:13:31.572Z,19.35
2017-12-02T23:15:57.847Z,19.37
2017-12-02T23:18:24.464Z,19.67
2017-12-02T23:20:50.710Z,18.60
2017-12-02T23:23:17.354Z,16.17
2017-12-02T23:25:43.982Z,18.58
2017-12-02T23:28:10.609Z,18.62
2017-12-02T23:30:36.841Z,16.02
2017-12-02T23:33:03.432Z,12.88
2017-12-02T23:35:29.690Z,17.12
2017-12-02T23:37:55.940Z,17.70
2017-12-02T23:40:22.568Z,20.15
2017-12-02T23:42:48.847Z,14.15
2017-12-02T23:45:15.097Z,18.50
2017-12-02T23:47:41.376Z,17.42
2017-12-02T23:50:07.620Z,16.75
2017-12-02T23:52:33.881Z,16.02
2017-12-02T23:55:00.123Z,18.77
2017-12-02T23:57:26.418Z,18.30
2017-12-02T23:59:52.673Z,16.60
